sensor_id;sensor_type;location;lat;lon;timestamp;temperature;humidity
2723;DHT22;1369;53.216;10.396;2023-01-24T00:02:19;3.60;99.90
2723;DHT22;1369;53.216;10.396;2023-01-24T00:04:44;3.60;99.90
2723;DHT22;1369;53.216;10.396;2023-01-24T00:07:11;3.60;99.90
2723;DHT22;1369;53.216;10.396;2023-01-24T00:09:36;3.60;99.90
2723;DHT22;1369;53.216;10.396;2023-01-24T00:12:02;3.60;99.90
2723;DHT22;1369;53.216;10.396;2023-01-24T00:14:28;3.60;99.90
2723;DHT22;1369;53.216;10.396;2023-01-24T00:16:53;3.60;99.90
2723;DHT22;1369;53.216;10.396;2023-01-24T00:19:19;3.60;99.90
2723;DHT22;1369;53.216;10.396;2023-01-24T00:21:44;3.60;99.90
2723;DHT22;1369;53.216;10.396;2023-01-24T00:24:09;3.60;99.90
2723;DHT22;1369;53.216;10.396;2023-01-24T00:26:35;3.60;99.90
2723;DHT22;1369;53.216;10.396;2023-01-24T00:29:01;3.50;99.90
2723;DHT22;1369;53.216;10.396;2023-01-24T00:31:26;3.60;99.90
2723;DHT22;1369;53.216;10.396;2023-01-24T00:33:52;3.60;99.90
2723;DHT22;1369;53.216;10.396;2023-01-24T00:36:17;3.50;99.90
2723;DHT22;1369;53.216;10.396;2023-01-24T00:38:43;3.50;99.90
2723;DHT22;1369;53.216;10.396;2023-01-24T00:41:08;3.50;99.90
2723;DHT22;1369;53.216;10.396;2023-01-24T00:43:34;3.50;99.90
2723;DHT22;1369;53.216;10.396;2023-01-24T00:46:00;3.60;99.90
2723;DHT22;1369;53.216;10.396;2023-01-24T00:48:26;3.60;99.90
2723;DHT22;1369;53.216;10.396;2023-01-24T00:50:52;3.50;99.90
2723;DHT22;1369;53.216;10.396;2023-01-24T00:53:17;3.50;99.90
2723;DHT22;1369;53.216;10.396;2023-01-24T00:55:45;3.60;99.90
2723;DHT22;1369;53.216;10.396;2023-01-24T00:58:12;3.60;99.90
2723;DHT22;1369;53.216;10.396;2023-01-24T01:00:38;3.60;99.90
2723;DHT22;1369;53.216;10.396;2023-01-24T01:03:05;3.60;99.90
2723;DHT22;1369;53.216;10.396;2023-01-24T01:05:30;3.70;99.90
2723;DHT22;1369;53.216;10.396;2023-01-24T01:07:56;3.60;99.90
2723;DHT22;1369;53.216;10.396;2023-01-24T01:10:21;3.60;99.90
2723;DHT22;1369;53.216;10.396;2023-01-24T01:12:47;3.60;99.90
2723;DHT22;1369;53.216;10.396;2023-01-24T01:15:12;3.60;99.90
2723;DHT22;1369;53.216;10.396;2023-01-24T01:17:38;3.70;99.90
2723;DHT22;1369;53.216;10.396;2023-01-24T01:20:04;3.60;99.90
2723;DHT22;1369;53.216;10.396;2023-01-24T01:22:29;3.60;99.90
2723;DHT22;1369;53.216;10.396;2023-01-24T01:24:55;3.50;99.90
2723;DHT22;1369;53.216;10.396;2023-01-24T01:27:20;3.50;99.90
2723;DHT22;1369;53.216;10.396;2023-01-24T01:29:46;3.40;99.90
2723;DHT22;1369;53.216;10.396;2023-01-24T01:32:11;3.30;99.90
2723;DHT22;1369;53.216;10.396;2023-01-24T01:34:37;3.30;99.90
2723;DHT22;1369;53.216;10.396;2023-01-24T01:37:02;3.40;99.90
2723;DHT22;1369;53.216;10.396;2023-01-24T01:39:28;3.40;99.90
2723;DHT22;1369;53.216;10.396;2023-01-24T01:41:53;3.40;99.90
2723;DHT22;1369;53.216;10.396;2023-01-24T01:44:23;3.40;99.90
2723;DHT22;1369;53.216;10.396;2023-01-24T01:47:25;3.40;99.90
2723;DHT22;1369;53.216;10.396;2023-01-24T01:49:59;3.50;99.90
2723;DHT22;1369;53.216;10.396;2023-01-24T01:52:29;3.50;99.90
2723;DHT22;1369;53.216;10.396;2023-01-24T01:55:00;3.40;99.90
2723;DHT22;1369;53.216;10.396;2023-01-24T01:57:30;3.40;99.90
2723;DHT22;1369;53.216;10.396;2023-01-24T02:00:03;3.30;99.90
2723;DHT22;1369;53.216;10.396;2023-01-24T02:02:30;3.40;99.90
2723;DHT22;1369;53.216;10.396;2023-01-24T02:05:00;3.40;99.90
2723;DHT22;1369;53.216;10.396;2023-01-24T02:07:43;3.40;99.90
2723;DHT22;1369;53.216;10.396;2023-01-24T02:10:10;3.40;99.90
2723;DHT22;1369;53.216;10.396;2023-01-24T02:12:39;3.40;99.90
2723;DHT22;1369;53.216;10.396;2023-01-24T02:15:10;3.40;99.90
2723;DHT22;1369;53.216;10.396;2023-01-24T02:17:54;3.40;99.90
2723;DHT22;1369;53.216;10.396;2023-01-24T02:20:36;3.40;99.90
2723;DHT22;1369;53.216;10.396;2023-01-24T02:28:33;3.30;99.90
2723;DHT22;1369;53.216;10.396;2023-01-24T02:31:00;3.40;99.90
2723;DHT22;1369;53.216;10.396;2023-01-24T02:33:26;3.40;99.90
2723;DHT22;1369;53.216;10.396;2023-01-24T02:38:31;3.30;99.90
2723;DHT22;1369;53.216;10.396;2023-01-24T02:40:59;3.30;99.90
2723;DHT22;1369;53.216;10.396;2023-01-24T02:43:34;3.20;99.90
2723;DHT22;1369;53.216;10.396;2023-01-24T02:46:01;3.30;99.90
2723;DHT22;1369;53.216;10.396;2023-01-24T02:48:27;3.20;99.90
2723;DHT22;1369;53.216;10.396;2023-01-24T02:50:52;3.30;99.90
2723;DHT22;1369;53.216;10.396;2023-01-24T02:53:36;3.40;99.90
2723;DHT22;1369;53.216;10.396;2023-01-24T02:56:06;3.40;99.90
2723;DHT22;1369;53.216;10.396;2023-01-24T02:58:50;3.30;99.90
2723;DHT22;1369;53.216;10.396;2023-01-24T03:01:17;3.30;99.90
2723;DHT22;1369;53.216;10.396;2023-01-24T03:03:46;3.30;99.90
2723;DHT22;1369;53.216;10.396;2023-01-24T03:06:13;3.30;99.90
2723;DHT22;1369;53.216;10.396;2023-01-24T03:08:40;3.30;99.90
2723;DHT22;1369;53.216;10.396;2023-01-24T03:11:06;3.30;99.90
2723;DHT22;1369;53.216;10.396;2023-01-24T03:13:33;3.20;99.90
2723;DHT22;1369;53.216;10.396;2023-01-24T03:16:17;3.20;99.90
2723;DHT22;1369;53.216;10.396;2023-01-24T03:19:02;3.20;99.90
2723;DHT22;1369;53.216;10.396;2023-01-24T03:21:46;3.30;99.90
2723;DHT22;1369;53.216;10.396;2023-01-24T03:24:30;3.30;99.90
2723;DHT22;1369;53.216;10.396;2023-01-24T03:27:14;3.30;99.90
2723;DHT22;1369;53.216;10.396;2023-01-24T03:29:58;3.20;99.90
2723;DHT22;1369;53.216;10.396;2023-01-24T03:32:43;3.30;99.90
2723;DHT22;1369;53.216;10.396;2023-01-24T03:35:27;3.30;99.90
2723;DHT22;1369;53.216;10.396;2023-01-24T03:37:53;3.30;99.90
2723;DHT22;1369;53.216;10.396;2023-01-24T03:40:38;3.40;99.90
2723;DHT22;1369;53.216;10.396;2023-01-24T03:43:04;3.30;99.90
2723;DHT22;1369;53.216;10.396;2023-01-24T03:45:33;3.30;99.90
2723;DHT22;1369;53.216;10.396;2023-01-24T03:48:01;3.30;99.90
2723;DHT22;1369;53.216;10.396;2023-01-24T03:50:42;3.30;99.90
2723;DHT22;1369;53.216;10.396;2023-01-24T03:53:29;3.30;99.90
2723;DHT22;1369;53.216;10.396;2023-01-24T03:55:57;3.20;99.90
2723;DHT22;1369;53.216;10.396;2023-01-24T03:58:23;3.20;99.90
2723;DHT22;1369;53.216;10.396;2023-01-24T04:00:49;3.20;99.90
2723;DHT22;1369;53.216;10.396;2023-01-24T04:03:15;3.10;99.90
2723;DHT22;1369;53.216;10.396;2023-01-24T04:05:40;3.10;99.90
2723;DHT22;1369;53.216;10.396;2023-01-24T04:08:06;3.10;99.90
2723;DHT22;1369;53.216;10.396;2023-01-24T04:10:33;3.10;99.90
2723;DHT22;1369;53.216;10.396;2023-01-24T04:12:58;3.10;99.90
2723;DHT22;1369;53.216;10.396;2023-01-24T04:15:27;3.10;99.90
2723;DHT22;1369;53.216;10.396;2023-01-24T04:18:01;3.20;99.90
2723;DHT22;1369;53.216;10.396;2023-01-24T04:20:29;3.20;99.90
2723;DHT22;1369;53.216;10.396;2023-01-24T04:22:55;3.20;99.90
2723;DHT22;1369;53.216;10.396;2023-01-24T04:25:21;3.20;99.90
2723;DHT22;1369;53.216;10.396;2023-01-24T04:27:47;3.20;99.90
2723;DHT22;1369;53.216;10.396;2023-01-24T04:30:14;3.20;99.90
2723;DHT22;1369;53.216;10.396;2023-01-24T04:32:40;3.20;99.90
2723;DHT22;1369;53.216;10.396;2023-01-24T04:35:06;3.20;99.90
2723;DHT22;1369;53.216;10.396;2023-01-24T04:37:32;3.10;99.90
2723;DHT22;1369;53.216;10.396;2023-01-24T04:39:57;3.20;99.90
2723;DHT22;1369;53.216;10.396;2023-01-24T04:42:23;3.20;99.90
2723;DHT22;1369;53.216;10.396;2023-01-24T04:44:49;3.10;99.90
2723;DHT22;1369;53.216;10.396;2023-01-24T04:47:14;3.10;99.90
2723;DHT22;1369;53.216;10.396;2023-01-24T04:49:40;3.10;99.90
2723;DHT22;1369;53.216;10.396;2023-01-24T04:52:10;3.10;99.90
2723;DHT22;1369;53.216;10.396;2023-01-24T04:54:37;3.10;99.90
2723;DHT22;1369;53.216;10.396;2023-01-24T04:57:02;3.10;99.90
2723;DHT22;1369;53.216;10.396;2023-01-24T04:59:28;3.20;99.90
2723;DHT22;1369;53.216;10.396;2023-01-24T05:01:53;3.20;99.90
2723;DHT22;1369;53.216;10.396;2023-01-24T05:04:19;3.20;99.90
2723;DHT22;1369;53.216;10.396;2023-01-24T05:06:44;3.10;99.90
2723;DHT22;1369;53.216;10.396;2023-01-24T05:09:10;3.10;99.90
2723;DHT22;1369;53.216;10.396;2023-01-24T05:11:36;3.10;99.90
2723;DHT22;1369;53.216;10.396;2023-01-24T05:14:02;3.10;99.90
2723;DHT22;1369;53.216;10.396;2023-01-24T05:16:27;3.10;99.90
2723;DHT22;1369;53.216;10.396;2023-01-24T05:18:53;3.10;99.90
2723;DHT22;1369;53.216;10.396;2023-01-24T05:21:18;3.10;99.90
2723;DHT22;1369;53.216;10.396;2023-01-24T05:23:51;3.10;99.90
2723;DHT22;1369;53.216;10.396;2023-01-24T05:26:18;3.10;99.90
2723;DHT22;1369;53.216;10.396;2023-01-24T05:28:44;3.10;99.90
2723;DHT22;1369;53.216;10.396;2023-01-24T05:31:09;3.20;99.90
2723;DHT22;1369;53.216;10.396;2023-01-24T05:33:35;3.20;99.90
2723;DHT22;1369;53.216;10.396;2023-01-24T05:36:10;3.20;99.90
2723;DHT22;1369;53.216;10.396;2023-01-24T05:38:36;3.10;99.90
2723;DHT22;1369;53.216;10.396;2023-01-24T05:41:06;3.10;99.90
2723;DHT22;1369;53.216;10.396;2023-01-24T05:43:33;3.00;99.90
2723;DHT22;1369;53.216;10.396;2023-01-24T05:46:00;3.00;99.90
2723;DHT22;1369;53.216;10.396;2023-01-24T05:48:26;3.10;99.90
2723;DHT22;1369;53.216;10.396;2023-01-24T05:51:09;3.00;99.90
2723;DHT22;1369;53.216;10.396;2023-01-24T05:53:37;3.00;99.90
2723;DHT22;1369;53.216;10.396;2023-01-24T05:56:05;3.00;99.90
2723;DHT22;1369;53.216;10.396;2023-01-24T05:58:36;3.00;99.90
2723;DHT22;1369;53.216;10.396;2023-01-24T06:01:09;3.00;99.90
2723;DHT22;1369;53.216;10.396;2023-01-24T06:03:37;3.00;99.90
2723;DHT22;1369;53.216;10.396;2023-01-24T06:06:03;3.10;99.90
2723;DHT22;1369;53.216;10.396;2023-01-24T06:08:29;3.10;99.90
2723;DHT22;1369;53.216;10.396;2023-01-24T06:10:54;3.10;99.90
2723;DHT22;1369;53.216;10.396;2023-01-24T06:13:20;3.10;99.90
2723;DHT22;1369;53.216;10.396;2023-01-24T06:15:45;3.10;99.90
2723;DHT22;1369;53.216;10.396;2023-01-24T06:18:14;3.00;99.90
2723;DHT22;1369;53.216;10.396;2023-01-24T06:20:40;3.00;99.90
2723;DHT22;1369;53.216;10.396;2023-01-24T06:23:09;3.00;99.90
2723;DHT22;1369;53.216;10.396;2023-01-24T06:25:35;3.00;99.90
2723;DHT22;1369;53.216;10.396;2023-01-24T06:28:01;3.00;99.90
2723;DHT22;1369;53.216;10.396;2023-01-24T06:30:26;3.00;99.90
2723;DHT22;1369;53.216;10.396;2023-01-24T06:33:01;2.90;99.90
2723;DHT22;1369;53.216;10.396;2023-01-24T06:38:01;3.00;99.90
2723;DHT22;1369;53.216;10.396;2023-01-24T06:40:27;3.00;99.90
2723;DHT22;1369;53.216;10.396;2023-01-24T06:42:53;3.00;99.90
2723;DHT22;1369;53.216;10.396;2023-01-24T06:45:20;3.00;99.90
2723;DHT22;1369;53.216;10.396;2023-01-24T06:47:45;3.00;99.90
2723;DHT22;1369;53.216;10.396;2023-01-24T06:50:20;3.10;99.90
2723;DHT22;1369;53.216;10.396;2023-01-24T06:52:48;3.20;99.90
2723;DHT22;1369;53.216;10.396;2023-01-24T06:55:14;3.10;99.90
2723;DHT22;1369;53.216;10.396;2023-01-24T06:57:40;3.00;99.90
2723;DHT22;1369;53.216;10.396;2023-01-24T07:00:06;2.90;99.90
2723;DHT22;1369;53.216;10.396;2023-01-24T07:02:32;2.90;99.90
2723;DHT22;1369;53.216;10.396;2023-01-24T07:04:57;2.90;99.90
2723;DHT22;1369;53.216;10.396;2023-01-24T07:07:23;2.90;99.90
2723;DHT22;1369;53.216;10.396;2023-01-24T07:09:48;3.00;99.90
2723;DHT22;1369;53.216;10.396;2023-01-24T07:12:14;3.00;99.90
2723;DHT22;1369;53.216;10.396;2023-01-24T07:14:39;3.00;99.90
2723;DHT22;1369;53.216;10.396;2023-01-24T07:17:05;2.90;99.90
2723;DHT22;1369;53.216;10.396;2023-01-24T07:19:31;2.90;99.90
2723;DHT22;1369;53.216;10.396;2023-01-24T07:21:57;2.90;99.90
2723;DHT22;1369;53.216;10.396;2023-01-24T07:24:25;2.90;99.90
2723;DHT22;1369;53.216;10.396;2023-01-24T07:26:51;2.90;99.90
2723;DHT22;1369;53.216;10.396;2023-01-24T07:29:18;3.00;99.90
2723;DHT22;1369;53.216;10.396;2023-01-24T07:31:43;3.00;99.90
2723;DHT22;1369;53.216;10.396;2023-01-24T07:34:09;3.00;99.90
2723;DHT22;1369;53.216;10.396;2023-01-24T07:36:36;3.00;99.90
2723;DHT22;1369;53.216;10.396;2023-01-24T07:39:02;2.90;99.90
2723;DHT22;1369;53.216;10.396;2023-01-24T07:41:27;3.00;99.90
2723;DHT22;1369;53.216;10.396;2023-01-24T07:43:53;2.90;99.90
2723;DHT22;1369;53.216;10.396;2023-01-24T07:46:20;3.00;99.90
2723;DHT22;1369;53.216;10.396;2023-01-24T07:48:46;3.00;99.90
2723;DHT22;1369;53.216;10.396;2023-01-24T07:51:11;3.00;99.90
2723;DHT22;1369;53.216;10.396;2023-01-24T07:53:37;3.00;99.90
2723;DHT22;1369;53.216;10.396;2023-01-24T07:56:03;2.90;99.90
2723;DHT22;1369;53.216;10.396;2023-01-24T07:58:29;3.00;99.90
2723;DHT22;1369;53.216;10.396;2023-01-24T08:00:55;3.00;99.90
2723;DHT22;1369;53.216;10.396;2023-01-24T08:03:20;3.00;99.90
2723;DHT22;1369;53.216;10.396;2023-01-24T08:05:46;3.10;99.90
2723;DHT22;1369;53.216;10.396;2023-01-24T08:08:12;3.00;99.90
2723;DHT22;1369;53.216;10.396;2023-01-24T08:10:37;3.00;99.90
2723;DHT22;1369;53.216;10.396;2023-01-24T08:13:03;3.00;99.90
2723;DHT22;1369;53.216;10.396;2023-01-24T08:15:28;3.10;99.90
2723;DHT22;1369;53.216;10.396;2023-01-24T08:17:55;3.10;99.90
2723;DHT22;1369;53.216;10.396;2023-01-24T08:20:20;3.00;99.90
2723;DHT22;1369;53.216;10.396;2023-01-24T08:22:46;3.10;99.90
2723;DHT22;1369;53.216;10.396;2023-01-24T08:25:12;3.20;99.90
2723;DHT22;1369;53.216;10.396;2023-01-24T08:27:40;3.20;99.90
2723;DHT22;1369;53.216;10.396;2023-01-24T08:30:07;3.20;99.90
2723;DHT22;1369;53.216;10.396;2023-01-24T08:32:34;3.20;99.90
2723;DHT22;1369;53.216;10.396;2023-01-24T08:35:00;3.30;99.90
2723;DHT22;1369;53.216;10.396;2023-01-24T08:37:25;3.30;99.90
2723;DHT22;1369;53.216;10.396;2023-01-24T08:39:51;3.30;99.90
2723;DHT22;1369;53.216;10.396;2023-01-24T08:42:16;3.10;99.90
2723;DHT22;1369;53.216;10.396;2023-01-24T08:44:42;3.10;99.90
2723;DHT22;1369;53.216;10.396;2023-01-24T08:47:07;3.10;99.90
2723;DHT22;1369;53.216;10.396;2023-01-24T08:49:33;3.10;99.90
2723;DHT22;1369;53.216;10.396;2023-01-24T08:51:58;3.10;99.90
2723;DHT22;1369;53.216;10.396;2023-01-24T08:54:26;3.20;99.90
2723;DHT22;1369;53.216;10.396;2023-01-24T08:56:51;3.20;99.90
2723;DHT22;1369;53.216;10.396;2023-01-24T08:59:17;3.20;99.90
2723;DHT22;1369;53.216;10.396;2023-01-24T09:01:42;3.30;99.90
2723;DHT22;1369;53.216;10.396;2023-01-24T09:04:09;3.30;99.90
2723;DHT22;1369;53.216;10.396;2023-01-24T09:06:35;3.20;99.90
2723;DHT22;1369;53.216;10.396;2023-01-24T09:09:01;3.20;99.90
2723;DHT22;1369;53.216;10.396;2023-01-24T09:11:28;3.20;99.90
2723;DHT22;1369;53.216;10.396;2023-01-24T09:13:53;3.10;99.90
2723;DHT22;1369;53.216;10.396;2023-01-24T09:16:19;3.00;99.90
2723;DHT22;1369;53.216;10.396;2023-01-24T09:18:44;3.10;99.90
2723;DHT22;1369;53.216;10.396;2023-01-24T09:21:10;3.10;99.90
2723;DHT22;1369;53.216;10.396;2023-01-24T09:23:35;3.00;99.90
2723;DHT22;1369;53.216;10.396;2023-01-24T09:26:01;3.10;99.90
2723;DHT22;1369;53.216;10.396;2023-01-24T09:28:26;3.10;99.90
2723;DHT22;1369;53.216;10.396;2023-01-24T09:30:52;3.20;99.90
2723;DHT22;1369;53.216;10.396;2023-01-24T09:33:18;3.30;99.90
2723;DHT22;1369;53.216;10.396;2023-01-24T09:35:58;3.30;99.90
2723;DHT22;1369;53.216;10.396;2023-01-24T09:38:24;3.40;99.90
2723;DHT22;1369;53.216;10.396;2023-01-24T09:46:20;3.40;99.90
2723;DHT22;1369;53.216;10.396;2023-01-24T09:48:49;3.30;99.90
2723;DHT22;1369;53.216;10.396;2023-01-24T09:51:21;3.30;99.90
2723;DHT22;1369;53.216;10.396;2023-01-24T09:53:55;3.30;99.90
2723;DHT22;1369;53.216;10.396;2023-01-24T09:56:25;3.20;99.90
2723;DHT22;1369;53.216;10.396;2023-01-24T09:59:16;3.30;99.90
2723;DHT22;1369;53.216;10.396;2023-01-24T10:01:46;3.30;99.90
2723;DHT22;1369;53.216;10.396;2023-01-24T10:04:18;3.20;99.90
2723;DHT22;1369;53.216;10.396;2023-01-24T10:09:51;3.40;99.90
2723;DHT22;1369;53.216;10.396;2023-01-24T10:12:54;3.50;99.90
2723;DHT22;1369;53.216;10.396;2023-01-24T10:15:32;3.40;99.90
2723;DHT22;1369;53.216;10.396;2023-01-24T10:23:49;3.50;99.90
2723;DHT22;1369;53.216;10.396;2023-01-24T10:26:27;3.50;99.90
2723;DHT22;1369;53.216;10.396;2023-01-24T10:29:00;3.50;99.90
2723;DHT22;1369;53.216;10.396;2023-01-24T10:31:39;3.40;99.90
2723;DHT22;1369;53.216;10.396;2023-01-24T10:34:18;3.50;99.90
2723;DHT22;1369;53.216;10.396;2023-01-24T10:36:50;3.50;99.90
2723;DHT22;1369;53.216;10.396;2023-01-24T10:39:17;3.50;99.90
2723;DHT22;1369;53.216;10.396;2023-01-24T10:41:43;3.60;99.90
2723;DHT22;1369;53.216;10.396;2023-01-24T10:44:17;3.50;99.90
2723;DHT22;1369;53.216;10.396;2023-01-24T10:49:50;3.50;99.90
2723;DHT22;1369;53.216;10.396;2023-01-24T10:52:18;3.40;99.90
2723;DHT22;1369;53.216;10.396;2023-01-24T10:54:49;3.50;99.90
2723;DHT22;1369;53.216;10.396;2023-01-24T11:02:49;3.40;99.90
2723;DHT22;1369;53.216;10.396;2023-01-24T11:05:16;3.40;99.90
2723;DHT22;1369;53.216;10.396;2023-01-24T11:07:54;3.50;99.90
2723;DHT22;1369;53.216;10.396;2023-01-24T11:10:27;3.40;99.90
2723;DHT22;1369;53.216;10.396;2023-01-24T11:12:58;3.20;99.90
2723;DHT22;1369;53.216;10.396;2023-01-24T11:15:30;3.20;99.90
2723;DHT22;1369;53.216;10.396;2023-01-24T11:18:13;3.30;99.90
2723;DHT22;1369;53.216;10.396;2023-01-24T11:20:41;3.30;99.90
2723;DHT22;1369;53.216;10.396;2023-01-24T11:23:18;3.40;99.90
2723;DHT22;1369;53.216;10.396;2023-01-24T11:25:58;3.40;99.90
2723;DHT22;1369;53.216;10.396;2023-01-24T11:30:55;3.50;99.90
2723;DHT22;1369;53.216;10.396;2023-01-24T11:36:36;3.50;99.90
2723;DHT22;1369;53.216;10.396;2023-01-24T11:39:37;3.50;99.90
2723;DHT22;1369;53.216;10.396;2023-01-24T11:42:36;3.60;99.90
2723;DHT22;1369;53.216;10.396;2023-01-24T11:51:09;3.40;99.90
2723;DHT22;1369;53.216;10.396;2023-01-24T11:54:00;3.20;99.90
2723;DHT22;1369;53.216;10.396;2023-01-24T11:56:35;3.20;99.90
2723;DHT22;1369;53.216;10.396;2023-01-24T11:59:28;3.20;99.90
2723;DHT22;1369;53.216;10.396;2023-01-24T12:02:46;3.20;99.90
2723;DHT22;1369;53.216;10.396;2023-01-24T12:13:24;3.30;99.90
2723;DHT22;1369;53.216;10.396;2023-01-24T12:16:09;3.30;99.90
2723;DHT22;1369;53.216;10.396;2023-01-24T12:21:57;3.30;99.90
2723;DHT22;1369;53.216;10.396;2023-01-24T12:24:35;3.10;99.90
2723;DHT22;1369;53.216;10.396;2023-01-24T12:27:06;3.10;99.90
2723;DHT22;1369;53.216;10.396;2023-01-24T12:32:37;3.30;99.90
2723;DHT22;1369;53.216;10.396;2023-01-24T12:35:23;3.30;99.90
2723;DHT22;1369;53.216;10.396;2023-01-24T12:38:00;3.30;99.90
2723;DHT22;1369;53.216;10.396;2023-01-24T12:40:49;3.30;99.90
2723;DHT22;1369;53.216;10.396;2023-01-24T12:43:22;3.20;99.90
2723;DHT22;1369;53.216;10.396;2023-01-24T12:49:07;3.00;99.90
2723;DHT22;1369;53.216;10.396;2023-01-24T12:51:42;2.90;99.90
2723;DHT22;1369;53.216;10.396;2023-01-24T12:54:20;3.00;99.90
2723;DHT22;1369;53.216;10.396;2023-01-24T12:56:54;3.10;99.90
2723;DHT22;1369;53.216;10.396;2023-01-24T12:59:25;3.10;99.90
2723;DHT22;1369;53.216;10.396;2023-01-24T13:02:03;3.10;99.90
2723;DHT22;1369;53.216;10.396;2023-01-24T13:04:55;3.10;99.90
2723;DHT22;1369;53.216;10.396;2023-01-24T13:07:45;3.20;99.90
2723;DHT22;1369;53.216;10.396;2023-01-24T13:12:48;3.20;99.90
2723;DHT22;1369;53.216;10.396;2023-01-24T13:15:18;3.10;99.90
2723;DHT22;1369;53.216;10.396;2023-01-24T13:20:51;3.10;99.90
2723;DHT22;1369;53.216;10.396;2023-01-24T13:23:31;3.20;99.90
2723;DHT22;1369;53.216;10.396;2023-01-24T13:26:31;3.10;99.90
2723;DHT22;1369;53.216;10.396;2023-01-24T13:34:23;2.90;99.90
2723;DHT22;1369;53.216;10.396;2023-01-24T13:36:51;2.90;99.90
2723;DHT22;1369;53.216;10.396;2023-01-24T13:39:30;2.90;99.90
2723;DHT22;1369;53.216;10.396;2023-01-24T13:42:12;2.90;99.90
2723;DHT22;1369;53.216;10.396;2023-01-24T13:44:44;2.90;99.90
2723;DHT22;1369;53.216;10.396;2023-01-24T13:55:40;2.80;99.90
2723;DHT22;1369;53.216;10.396;2023-01-24T14:03:29;2.90;99.90
2723;DHT22;1369;53.216;10.396;2023-01-24T14:06:07;2.90;99.90
2723;DHT22;1369;53.216;10.396;2023-01-24T14:08:46;2.70;99.90
2723;DHT22;1369;53.216;10.396;2023-01-24T14:11:21;2.80;99.90
2723;DHT22;1369;53.216;10.396;2023-01-24T14:21:32;2.80;99.90
2723;DHT22;1369;53.216;10.396;2023-01-24T14:26:54;2.80;99.90
2723;DHT22;1369;53.216;10.396;2023-01-24T14:29:33;2.80;99.90
2723;DHT22;1369;53.216;10.396;2023-01-24T14:32:00;2.90;99.90
2723;DHT22;1369;53.216;10.396;2023-01-24T14:34:45;2.80;99.90
2723;DHT22;1369;53.216;10.396;2023-01-24T14:37:17;2.80;99.90
2723;DHT22;1369;53.216;10.396;2023-01-24T14:39:43;2.80;99.90
2723;DHT22;1369;53.216;10.396;2023-01-24T14:42:13;2.80;99.90
2723;DHT22;1369;53.216;10.396;2023-01-24T14:45:02;2.80;99.90
2723;DHT22;1369;53.216;10.396;2023-01-24T14:47:27;2.70;99.90
2723;DHT22;1369;53.216;10.396;2023-01-24T14:49:56;2.70;99.90
2723;DHT22;1369;53.216;10.396;2023-01-24T14:52:25;2.70;99.90
2723;DHT22;1369;53.216;10.396;2023-01-24T14:54:57;2.60;99.90
2723;DHT22;1369;53.216;10.396;2023-01-24T14:57:25;2.70;99.90
2723;DHT22;1369;53.216;10.396;2023-01-24T15:00:15;2.60;99.90
2723;DHT22;1369;53.216;10.396;2023-01-24T15:02:54;2.70;99.90
2723;DHT22;1369;53.216;10.396;2023-01-24T15:05:35;2.70;99.90
2723;DHT22;1369;53.216;10.396;2023-01-24T15:08:04;2.80;99.90
2723;DHT22;1369;53.216;10.396;2023-01-24T15:10:35;2.80;99.90
2723;DHT22;1369;53.216;10.396;2023-01-24T15:13:10;2.80;99.90
2723;DHT22;1369;53.216;10.396;2023-01-24T15:15:42;2.70;99.90
2723;DHT22;1369;53.216;10.396;2023-01-24T15:20:49;2.40;99.90
2723;DHT22;1369;53.216;10.396;2023-01-24T15:23:20;2.40;99.90
2723;DHT22;1369;53.216;10.396;2023-01-24T15:25:48;2.30;99.90
2723;DHT22;1369;53.216;10.396;2023-01-24T15:28:29;2.40;99.90
2723;DHT22;1369;53.216;10.396;2023-01-24T15:30:59;2.40;99.90
2723;DHT22;1369;53.216;10.396;2023-01-24T15:33:39;2.50;99.90
2723;DHT22;1369;53.216;10.396;2023-01-24T15:36:20;2.50;99.90
2723;DHT22;1369;53.216;10.396;2023-01-24T15:38:48;2.50;99.90
2723;DHT22;1369;53.216;10.396;2023-01-24T15:41:23;2.50;99.90
2723;DHT22;1369;53.216;10.396;2023-01-24T15:44:04;2.50;99.90
2723;DHT22;1369;53.216;10.396;2023-01-24T15:46:33;2.50;99.90
2723;DHT22;1369;53.216;10.396;2023-01-24T15:49:30;2.50;99.90
2723;DHT22;1369;53.216;10.396;2023-01-24T15:54:31;2.40;99.90
2723;DHT22;1369;53.216;10.396;2023-01-24T15:57:00;2.30;99.90
2723;DHT22;1369;53.216;10.396;2023-01-24T15:59:27;2.40;99.90
2723;DHT22;1369;53.216;10.396;2023-01-24T16:01:53;2.30;99.90
2723;DHT22;1369;53.216;10.396;2023-01-24T16:04:20;2.30;99.90
2723;DHT22;1369;53.216;10.396;2023-01-24T16:06:46;2.30;99.90
2723;DHT22;1369;53.216;10.396;2023-01-24T16:09:12;2.30;99.90
2723;DHT22;1369;53.216;10.396;2023-01-24T16:11:39;2.30;99.90
2723;DHT22;1369;53.216;10.396;2023-01-24T16:14:06;2.30;99.90
2723;DHT22;1369;53.216;10.396;2023-01-24T16:16:33;2.30;99.90
2723;DHT22;1369;53.216;10.396;2023-01-24T16:18:59;2.30;99.90
2723;DHT22;1369;53.216;10.396;2023-01-24T16:21:25;2.20;99.90
2723;DHT22;1369;53.216;10.396;2023-01-24T16:23:51;2.20;99.90
2723;DHT22;1369;53.216;10.396;2023-01-24T16:26:21;2.20;99.90
2723;DHT22;1369;53.216;10.396;2023-01-24T16:28:47;2.20;99.90
2723;DHT22;1369;53.216;10.396;2023-01-24T16:31:13;2.20;99.90
2723;DHT22;1369;53.216;10.396;2023-01-24T16:33:38;2.10;99.90
2723;DHT22;1369;53.216;10.396;2023-01-24T16:36:04;2.20;99.90
2723;DHT22;1369;53.216;10.396;2023-01-24T16:38:29;2.20;99.90
2723;DHT22;1369;53.216;10.396;2023-01-24T16:40:55;2.20;99.90
2723;DHT22;1369;53.216;10.396;2023-01-24T16:43:22;2.10;99.90
2723;DHT22;1369;53.216;10.396;2023-01-24T16:45:49;2.10;99.90
2723;DHT22;1369;53.216;10.396;2023-01-24T16:48:15;2.10;99.90
2723;DHT22;1369;53.216;10.396;2023-01-24T16:50:42;2.10;99.90
2723;DHT22;1369;53.216;10.396;2023-01-24T16:53:08;2.00;99.90
2723;DHT22;1369;53.216;10.396;2023-01-24T16:55:34;2.00;99.90
2723;DHT22;1369;53.216;10.396;2023-01-24T16:58:07;2.00;99.90
2723;DHT22;1369;53.216;10.396;2023-01-24T17:00:33;2.10;99.90
2723;DHT22;1369;53.216;10.396;2023-01-24T17:02:59;2.20;99.90
2723;DHT22;1369;53.216;10.396;2023-01-24T17:05:25;2.10;99.90
2723;DHT22;1369;53.216;10.396;2023-01-24T17:07:52;2.20;99.90
2723;DHT22;1369;53.216;10.396;2023-01-24T17:10:18;2.20;99.90
2723;DHT22;1369;53.216;10.396;2023-01-24T17:12:44;2.20;99.90
2723;DHT22;1369;53.216;10.396;2023-01-24T17:15:09;2.30;99.90
2723;DHT22;1369;53.216;10.396;2023-01-24T17:17:36;2.30;99.90
2723;DHT22;1369;53.216;10.396;2023-01-24T17:20:02;2.30;99.90
2723;DHT22;1369;53.216;10.396;2023-01-24T17:22:28;2.40;99.90
2723;DHT22;1369;53.216;10.396;2023-01-24T17:24:54;2.40;99.90
2723;DHT22;1369;53.216;10.396;2023-01-24T17:27:20;2.40;99.90
2723;DHT22;1369;53.216;10.396;2023-01-24T17:29:45;2.40;99.90
2723;DHT22;1369;53.216;10.396;2023-01-24T17:32:11;2.40;99.90
2723;DHT22;1369;53.216;10.396;2023-01-24T17:34:36;2.40;99.90
2723;DHT22;1369;53.216;10.396;2023-01-24T17:37:02;2.30;99.90
2723;DHT22;1369;53.216;10.396;2023-01-24T17:39:28;2.20;99.90
2723;DHT22;1369;53.216;10.396;2023-01-24T17:41:53;2.20;99.90
2723;DHT22;1369;53.216;10.396;2023-01-24T17:44:19;2.20;99.90
2723;DHT22;1369;53.216;10.396;2023-01-24T17:46:44;2.30;99.90
2723;DHT22;1369;53.216;10.396;2023-01-24T17:49:10;2.30;99.90
2723;DHT22;1369;53.216;10.396;2023-01-24T17:51:35;2.30;99.90
2723;DHT22;1369;53.216;10.396;2023-01-24T17:54:02;2.30;99.90
2723;DHT22;1369;53.216;10.396;2023-01-24T17:56:28;2.40;99.90
2723;DHT22;1369;53.216;10.396;2023-01-24T17:58:53;2.40;99.90
2723;DHT22;1369;53.216;10.396;2023-01-24T18:01:20;2.40;99.90
2723;DHT22;1369;53.216;10.396;2023-01-24T18:03:45;2.20;99.90